Port Heiden, AK

10:02 AM AKDT on July 24, 2017 (GMT -0800)
Port Heiden

Weather History for PAPH - February, 2014

Change the Weather History Date:

Sunday, February 16, 2014

  Actual Average Record
Temperature  
Mean Temperature 8 °F -  
Max Temperature 15 °F 31 °F 48 °F (2015)
Min Temperature 1 °F 22 °F 1 °F (2014)
Degree Days  
Heating Degree Days 57    
Moisture  
Dew Point 2 °F    
Average Humidity 62    
Maximum Humidity 78    
Minimum Humidity 48    
Precipitation  
Precipitation 0.00 in - - ()
Sea Level Pressure  
Sea Level Pressure 29.03 in    
Wind  
Wind Speed 17 mph (NNW)    
Max Wind Speed 26 mph    
Max Gust Speed 33 mph    
Visibility 8 miles    
Events      
Averages and records for this station are not official NWS values.
T = Trace of Precipitation, MM = Missing Value Source: NWS Daily Summary

Daily Weather History Graph

Daily Weather History Graph

Search for Another Location

Airport or City:

Trip Planner

Search our weather history database for the weather conditions in past years. The results will help you decide how hot, cold, wet, or windy it might be!

Date:

Astronomy

Feb. 16, 2014 Rise Set
Actual Time 8:59 AM AKST 6:38 PM AKST
Civil Twilight 8:19 AM AKST 7:18 PM AKST
Nautical Twilight 7:35 AM AKST 8:02 PM AKST
Astronomical Twilight 6:51 AM AKST 8:47 PM AKST
Moon 9:20 PM AKST (2/16) 9:06 AM AKST (2/16)
Length of Visible Light 10h 58m
Length of Day
9h 39m
Full, 97% of the Moon is Illuminated
Feb 16
Full
Feb 22
Last Quarter
Feb 28
New
Mar 8
First Quarter
Mar 16
Full

Hourly Weather History & Observations

Time (AKST) Temp. Windchill Dew Point Humidity Pressure Visibility Wind Dir Wind Speed Gust Speed Precip Events Conditions
12:16 AM 12.2 °F -6.7 °F 1.4 °F 62% 28.88 in 3.0 mi NW 21.9 mph - N/A   Overcast
12:36 AM 12.2 °F -5.8 °F 1.4 °F 62% 28.89 in 7.0 mi NW 19.6 mph - N/A   Overcast
12:56 AM 12.2 °F -5.3 °F 1.4 °F 62% 28.89 in 4.0 mi NW 18.4 mph 25.3 mph N/A   Overcast
1:16 AM 12.2 °F -5.3 °F 3.2 °F 67% 28.90 in 2.5 mi NW 18.4 mph - N/A   Overcast
1:36 AM 12.2 °F -6.7 °F 3.2 °F 67% 28.90 in 1.8 mi WNW 21.9 mph 29.9 mph N/A   Overcast
1:56 AM 12.2 °F -7.5 °F 3.2 °F 67% 28.90 in 2.0 mi WNW 24.2 mph 33.4 mph N/A   Overcast
2:16 AM 12.2 °F -8.2 °F 3.2 °F 67% 28.91 in 1.8 mi WNW 26.5 mph - N/A   Overcast
2:36 AM 12.2 °F -7.1 °F 3.2 °F 67% 28.91 in 3.0 mi NW 23.0 mph - N/A   Overcast
2:56 AM 12.2 °F -8.2 °F 3.2 °F 67% 28.91 in 1.2 mi WNW 26.5 mph 31.1 mph N/A   Overcast
3:16 AM 12.2 °F -6.3 °F 3.2 °F 67% 28.92 in 3.0 mi NW 20.7 mph 27.6 mph N/A   Overcast
3:36 AM 12.2 °F -7.1 °F 1.4 °F 62% 28.92 in 8.0 mi NW 23.0 mph 27.6 mph N/A   Overcast
3:56 AM 12.2 °F -6.3 °F 1.4 °F 62% 28.93 in 5.0 mi NW 20.7 mph 26.5 mph N/A   Overcast
4:16 AM 12.2 °F -7.1 °F 1.4 °F 62% 28.93 in 7.0 mi NW 23.0 mph - N/A   Overcast
4:36 AM 12.2 °F -6.3 °F 1.4 °F 62% 28.93 in 7.0 mi NW 20.7 mph - N/A   Overcast
4:56 AM 12.2 °F -5.8 °F 1.4 °F 62% 28.94 in 5.0 mi NW 19.6 mph - N/A   Overcast
5:16 AM 12.2 °F -5.8 °F 1.4 °F 62% 28.94 in 8.0 mi NW 19.6 mph 24.2 mph N/A   Overcast
5:36 AM 12.2 °F -4.8 °F 1.4 °F 62% 28.94 in 10.0 mi NW 17.3 mph 26.5 mph N/A   Overcast
5:56 AM 12.2 °F -3.7 °F 3.2 °F 67% 28.94 in 10.0 mi NW 15.0 mph - N/A   Overcast
6:16 AM 12.2 °F -4.8 °F 3.2 °F 67% 28.94 in 10.0 mi NW 17.3 mph 23.0 mph N/A   Overcast
6:36 AM 12.2 °F -6.3 °F 3.2 °F 67% 28.95 in 10.0 mi NW 20.7 mph - N/A   Overcast
6:56 AM 12.2 °F -6.3 °F 3.2 °F 67% 28.96 in 10.0 mi NW 20.7 mph 25.3 mph N/A   Overcast
7:16 AM 12.2 °F -5.8 °F 3.2 °F 67% 28.96 in 10.0 mi NW 19.6 mph 26.5 mph N/A   Overcast
7:36 AM 12.2 °F -5.8 °F 3.2 °F 67% 28.97 in 10.0 mi NW 19.6 mph - N/A   Overcast
7:56 AM 12.2 °F -4.8 °F 3.2 °F 67% 28.97 in 10.0 mi NW 17.3 mph 23.0 mph N/A   Overcast
8:16 AM 12.2 °F -3.7 °F 3.2 °F 67% 28.98 in 10.0 mi NW 15.0 mph 20.7 mph N/A   Overcast
8:36 AM 12.2 °F -4.8 °F 3.2 °F 67% 28.98 in 10.0 mi NW 17.3 mph - N/A   Overcast
8:56 AM 12.2 °F -4.3 °F 3.2 °F 67% 28.99 in 10.0 mi NW 16.1 mph - N/A   Overcast
9:16 AM 14.0 °F -1.4 °F 1.4 °F 57% 28.99 in 10.0 mi NW 15.0 mph - N/A   Overcast
9:36 AM 14.0 °F -0.8 °F -0.4 °F 53% 29.00 in 10.0 mi NW 13.8 mph 17.3 mph N/A   Overcast
9:56 AM 14.0 °F -1.4 °F 3.2 °F 62% 29.01 in 10.0 mi NW 15.0 mph - N/A   Overcast
10:16 AM 14.0 °F -0.2 °F 3.2 °F 62% 29.01 in 10.0 mi NW 12.7 mph - N/A   Overcast
10:36 AM 15.8 °F 2.7 °F 3.2 °F 58% 29.01 in 10.0 mi NW 11.5 mph - N/A   Overcast
10:56 AM 15.8 °F 2.7 °F 3.2 °F 58% 29.02 in 10.0 mi WNW 11.5 mph - N/A   Overcast
11:16 AM 15.8 °F 1.4 °F 5.0 °F 62% 29.02 in 9.0 mi WNW 13.8 mph - N/A   Overcast
11:36 AM 15.8 °F 2.1 °F 5.0 °F 62% 29.03 in 10.0 mi WNW 12.7 mph - N/A   Overcast
11:56 AM 15.8 °F 2.1 °F 5.0 °F 62% 29.04 in 4.0 mi NW 12.7 mph 16.1 mph N/A   Overcast
12:16 PM 15.8 °F 2.7 °F 6.8 °F 68% 29.04 in 4.0 mi NW 11.5 mph - N/A   Overcast
12:36 PM 15.8 °F 2.1 °F 6.8 °F 68% 29.04 in 5.0 mi NW 12.7 mph - N/A   Overcast
12:56 PM 15.8 °F 3.4 °F 5.0 °F 62% 29.05 in 3.0 mi NW 10.4 mph - N/A   Overcast
1:16 PM 15.8 °F 3.4 °F 3.2 °F 58% 29.06 in 2.0 mi NW 10.4 mph - N/A   Overcast
1:36 PM 15.8 °F 3.4 °F 5.0 °F 62% 29.06 in 3.0 mi NW 10.4 mph - N/A   Overcast
1:56 PM 15.8 °F 0.9 °F 3.2 °F 58% 29.06 in 5.0 mi NW 15.0 mph - N/A   Overcast
2:16 PM 15.8 °F 1.4 °F 5.0 °F 62% 29.06 in 5.0 mi NW 13.8 mph - N/A   Overcast
2:36 PM 15.8 °F 0.9 °F 3.2 °F 58% 29.07 in 10.0 mi WNW 15.0 mph - N/A   Overcast
2:56 PM 14.0 °F -0.8 °F 3.2 °F 62% 29.07 in 10.0 mi NW 13.8 mph - N/A   Overcast
3:16 PM 14.0 °F -0.8 °F 3.2 °F 62% 29.07 in 10.0 mi NW 13.8 mph - N/A   Overcast
3:36 PM 14.0 °F -0.8 °F 1.4 °F 57% 29.08 in 10.0 mi NW 13.8 mph - N/A   Overcast
3:56 PM 12.2 °F -3.7 °F 1.4 °F 62% 29.09 in 10.0 mi NW 15.0 mph - N/A   Overcast
4:16 PM 12.2 °F -3.7 °F 1.4 °F 62% 29.09 in 10.0 mi NW 15.0 mph 19.6 mph N/A   Overcast
4:36 PM 12.2 °F -4.3 °F 1.4 °F 62% 29.10 in 10.0 mi NW 16.1 mph 21.9 mph N/A   Overcast
4:56 PM 12.2 °F -3.1 °F -0.4 °F 57% 29.10 in 10.0 mi NNW 13.8 mph - N/A   Mostly Cloudy
5:16 PM 12.2 °F -3.1 °F -0.4 °F 57% 29.11 in 10.0 mi NNW 13.8 mph - N/A   Mostly Cloudy
5:36 PM 12.2 °F -1.0 °F 1.4 °F 62% 29.11 in 10.0 mi NNW 10.4 mph - N/A   Scattered Clouds
5:56 PM 12.2 °F -1.8 °F -0.4 °F 57% 29.12 in 10.0 mi NNW 11.5 mph - N/A   Mostly Cloudy
6:16 PM 12.2 °F -1.0 °F -0.4 °F 57% 29.12 in 9.0 mi North 10.4 mph - N/A   Mostly Cloudy
6:36 PM 12.2 °F -1.8 °F 1.4 °F 62% 29.12 in 10.0 mi NNW 11.5 mph - N/A   Overcast
6:56 PM 12.2 °F -0.2 °F -2.2 °F 53% 29.13 in 10.0 mi NNW 9.2 mph - N/A   Overcast
7:16 PM 12.2 °F 1.7 °F -0.4 °F 57% 29.13 in 9.0 mi North 6.9 mph - N/A   Overcast
7:36 PM 12.2 °F -0.2 °F -0.4 °F 57% 29.13 in 8.0 mi North 9.2 mph - N/A   Overcast
7:56 PM 12.2 °F 1.7 °F 1.4 °F 62% 29.13 in 9.0 mi North 6.9 mph - N/A   Overcast
8:16 PM 12.2 °F 0.7 °F 1.4 °F 62% 29.13 in 10.0 mi NNE 8.1 mph - N/A   Overcast
8:36 PM 12.2 °F -0.2 °F 1.4 °F 62% 29.13 in 10.0 mi NNE 9.2 mph - N/A   Overcast
8:56 PM 12.2 °F -1.0 °F 1.4 °F 62% 29.13 in 10.0 mi NNE 10.4 mph - N/A   Overcast
9:16 PM 12.2 °F 0.7 °F 1.4 °F 62% 29.14 in 10.0 mi NE 8.1 mph - N/A   Overcast
9:36 PM 10.4 °F -0.4 °F -0.4 °F 62% 29.13 in 10.0 mi NE 6.9 mph - N/A   Overcast
9:56 PM 10.4 °F -0.4 °F 1.4 °F 67% 29.13 in 10.0 mi ENE 6.9 mph - N/A   Overcast
10:16 PM 8.6 °F -2.6 °F -0.4 °F 67% 29.13 in 10.0 mi ENE 6.9 mph - N/A   Mostly Cloudy
10:36 PM 6.8 °F -6.9 °F -2.2 °F 67% 29.12 in 10.0 mi NE 9.2 mph - N/A   Partly Cloudy
10:56 PM 5.0 °F -8.1 °F -5.8 °F 61% 29.12 in 10.0 mi ENE 8.1 mph - N/A   Clear
11:16 PM 3.2 °F - -7.6 °F 61% 29.13 in 10.0 mi Calm Calm - N/A   Clear
11:36 PM 1.4 °F -8.3 °F -4.0 °F 78% 29.13 in 10.0 mi ESE 4.6 mph - N/A   Clear
11:56 PM 3.2 °F -7.8 °F -2.2 °F 78% 29.13 in 10.0 mi East 5.8 mph - N/A   Clear